sensor_id;sensor_type;location;lat;lon;timestamp;pressure;altitude;pressure_sealevel;temperature;humidity
31096;BME280;17749;51.962;8.560;2023-02-14T06:00:44;101910.06;;;1.38;100.00
31096;BME280;17749;51.962;8.560;2023-02-14T06:03:10;101916.06;;;1.33;100.00
31096;BME280;17749;51.962;8.560;2023-02-14T06:05:37;101914.38;;;1.35;100.00
31096;BME280;17749;51.962;8.560;2023-02-14T06:08:04;101910.88;;;1.36;100.00
31096;BME280;17749;51.962;8.560;2023-02-14T06:10:31;101909.94;;;1.32;100.00
31096;BME280;17749;51.962;8.560;2023-02-14T06:12:58;101919.69;;;1.38;100.00
31096;BME280;17749;51.962;8.560;2023-02-14T06:15:25;101920.63;;;1.40;100.00
31096;BME280;17749;51.962;8.560;2023-02-14T06:17:54;101918.00;;;1.40;100.00
31096;BME280;17749;51.962;8.560;2023-02-14T06:20:23;101930.25;;;1.39;100.00
31096;BME280;17749;51.962;8.560;2023-02-14T06:22:50;101924.09;;;1.39;100.00
31096;BME280;17749;51.962;8.560;2023-02-14T06:25:18;101931.97;;;1.39;100.00
31096;BME280;17749;51.962;8.560;2023-02-14T06:27:46;101925.75;;;1.35;100.00
31096;BME280;17749;51.962;8.560;2023-02-14T06:30:16;101920.50;;;1.35;100.00
31096;BME280;17749;51.962;8.560;2023-02-14T06:32:43;101924.00;;;1.34;100.00
31096;BME280;17749;51.962;8.560;2023-02-14T06:35:10;101921.31;;;1.33;100.00
31096;BME280;17749;51.962;8.560;2023-02-14T06:37:39;101923.06;;;1.34;100.00
31096;BME280;17749;51.962;8.560;2023-02-14T06:40:08;101926.56;;;1.33;100.00
31096;BME280;17749;51.962;8.560;2023-02-14T06:42:36;101925.59;;;1.29;100.00
31096;BME280;17749;51.962;8.560;2023-02-14T06:45:04;101915.91;;;1.26;100.00
31096;BME280;17749;51.962;8.560;2023-02-14T06:47:31;101926.47;;;1.29;100.00
31096;BME280;17749;51.962;8.560;2023-02-14T06:50:01;101920.44;;;1.32;100.00
31096;BME280;17749;51.962;8.560;2023-02-14T06:52:34;101922.19;;;1.33;100.00
31096;BME280;17749;51.962;8.560;2023-02-14T06:55:06;101922.91;;;1.27;100.00
31096;BME280;17749;51.962;8.560;2023-02-14T06:57:36;101929.19;;;1.33;100.00
31096;BME280;17749;51.962;8.560;2023-02-14T07:00:05;101935.28;;;1.31;100.00
31096;BME280;17749;51.962;8.560;2023-02-14T07:02:32;101929.97;;;1.28;100.00
31096;BME280;17749;51.962;8.560;2023-02-14T07:04:58;101925.53;;;1.26;100.00
31096;BME280;17749;51.962;8.560;2023-02-14T07:07:25;101936.81;;;1.23;100.00
31096;BME280;17749;51.962;8.560;2023-02-14T07:09:52;101931.56;;;1.23;100.00
31096;BME280;17749;51.962;8.560;2023-02-14T07:12:19;101931.47;;;1.20;100.00
31096;BME280;17749;51.962;8.560;2023-02-14T07:14:46;101935.91;;;1.23;100.00
31096;BME280;17749;51.962;8.560;2023-02-14T07:17:13;101927.16;;;1.22;100.00
31096;BME280;17749;51.962;8.560;2023-02-14T07:19:40;101927.22;;;1.24;100.00
31096;BME280;17749;51.962;8.560;2023-02-14T07:22:07;101927.38;;;1.30;100.00
31096;BME280;17749;51.962;8.560;2023-02-14T07:24:33;101930.19;;;1.38;100.00
31096;BME280;17749;51.962;8.560;2023-02-14T07:27:00;101923.06;;;1.34;100.00
31096;BME280;17749;51.962;8.560;2023-02-14T07:29:27;101928.25;;;1.30;100.00
31096;BME280;17749;51.962;8.560;2023-02-14T07:31:54;101922.25;;;1.35;100.00
31096;BME280;17749;51.962;8.560;2023-02-14T07:34:21;101931.94;;;1.37;100.00
31096;BME280;17749;51.962;8.560;2023-02-14T07:36:48;101930.28;;;1.41;100.00
31096;BME280;17749;51.962;8.560;2023-02-14T07:39:15;101942.47;;;1.39;100.00
31096;BME280;17749;51.962;8.560;2023-02-14T07:41:42;101933.78;;;1.41;100.00
31096;BME280;17749;51.962;8.560;2023-02-14T07:44:09;101919.97;;;1.48;100.00
31096;BME280;17749;51.962;8.560;2023-02-14T07:46:36;101927.38;;;1.63;100.00
31096;BME280;17749;51.962;8.560;2023-02-14T07:49:03;101926.78;;;1.75;100.00
31096;BME280;17749;51.962;8.560;2023-02-14T07:51:30;101921.78;;;1.86;100.00
31096;BME280;17749;51.962;8.560;2023-02-14T07:53:57;101910.38;;;1.84;100.00
31096;BME280;17749;51.962;8.560;2023-02-14T07:56:24;101917.47;;;1.88;100.00
31096;BME280;17749;51.962;8.560;2023-02-14T07:58:51;101920.34;;;1.98;100.00
31096;BME280;17749;51.962;8.560;2023-02-14T08:01:18;101914.16;;;1.95;100.00
31096;BME280;17749;51.962;8.560;2023-02-14T08:03:46;101912.63;;;2.05;100.00
31096;BME280;17749;51.962;8.560;2023-02-14T08:06:18;101917.59;;;2.30;100.00
31096;BME280;17749;51.962;8.560;2023-02-14T08:08:46;101914.47;;;2.47;100.00
31096;BME280;17749;51.962;8.560;2023-02-14T08:11:13;101922.66;;;2.60;100.00
31096;BME280;17749;51.962;8.560;2023-02-14T08:14:00;101919.34;;;2.71;100.00
31096;BME280;17749;51.962;8.560;2023-02-14T08:16:27;101918.63;;;2.78;100.00
31096;BME280;17749;51.962;8.560;2023-02-14T08:18:54;101923.28;;;2.91;100.00
31096;BME280;17749;51.962;8.560;2023-02-14T08:21:21;101911.28;;;3.05;100.00
31096;BME280;17749;51.962;8.560;2023-02-14T08:23:48;101919.38;;;3.16;100.00
31096;BME280;17749;51.962;8.560;2023-02-14T08:26:15;101922.22;;;3.27;100.00
31096;BME280;17749;51.962;8.560;2023-02-14T08:28:43;101920.72;;;3.40;100.00
31096;BME280;17749;51.962;8.560;2023-02-14T08:31:10;101919.91;;;3.44;100.00
31096;BME280;17749;51.962;8.560;2023-02-14T08:33:37;101919.38;;;3.62;100.00
31096;BME280;17749;51.962;8.560;2023-02-14T08:36:10;101916.00;;;3.72;100.00
31096;BME280;17749;51.962;8.560;2023-02-14T08:38:43;101926.78;;;3.87;100.00
31096;BME280;17749;51.962;8.560;2023-02-14T08:41:14;101923.50;;;4.01;100.00
31096;BME280;17749;51.962;8.560;2023-02-14T08:43:42;101920.13;;;4.11;100.00
31096;BME280;17749;51.962;8.560;2023-02-14T08:46:09;101915.94;;;4.22;100.00
31096;BME280;17749;51.962;8.560;2023-02-14T08:48:38;101928.47;;;4.38;100.00
31096;BME280;17749;51.962;8.560;2023-02-14T08:51:10;101922.44;;;4.46;100.00
31096;BME280;17749;51.962;8.560;2023-02-14T08:53:38;101915.41;;;4.48;100.00
31096;BME280;17749;51.962;8.560;2023-02-14T08:56:11;101922.59;;;4.58;100.00
31096;BME280;17749;51.962;8.560;2023-02-14T08:58:38;101916.50;;;4.62;100.00
31096;BME280;17749;51.962;8.560;2023-02-14T09:01:10;101926.31;;;4.72;100.00
31096;BME280;17749;51.962;8.560;2023-02-14T09:03:38;101920.22;;;4.78;100.00
31096;BME280;17749;51.962;8.560;2023-02-14T09:06:07;101908.81;;;4.80;100.00
31096;BME280;17749;51.962;8.560;2023-02-14T09:08:36;101907.13;;;4.86;100.00
31096;BME280;17749;51.962;8.560;2023-02-14T09:11:07;101920.44;;;4.96;100.00
31096;BME280;17749;51.962;8.560;2023-02-14T09:13:34;101909.84;;;4.95;100.00
31096;BME280;17749;51.962;8.560;2023-02-14T09:16:05;101908.19;;;5.03;100.00
31096;BME280;17749;51.962;8.560;2023-02-14T09:18:33;101902.97;;;5.11;100.00
31096;BME280;17749;51.962;8.560;2023-02-14T09:21:00;101903.91;;;5.13;100.00
31096;BME280;17749;51.962;8.560;2023-02-14T09:23:27;101910.13;;;5.16;100.00
31096;BME280;17749;51.962;8.560;2023-02-14T09:26:04;101909.31;;;5.26;100.00
31096;BME280;17749;51.962;8.560;2023-02-14T09:28:31;101912.94;;;5.35;100.00
31096;BME280;17749;51.962;8.560;2023-02-14T09:31:07;101905.06;;;5.41;100.00
31096;BME280;17749;51.962;8.560;2023-02-14T09:33:35;101909.56;;;5.48;100.00
31096;BME280;17749;51.962;8.560;2023-02-14T09:36:20;101904.28;;;5.49;100.00
31096;BME280;17749;51.962;8.560;2023-02-14T09:39:05;101917.63;;;5.63;100.00
31096;BME280;17749;51.962;8.560;2023-02-14T09:44:33;101916.03;;;5.84;100.00
31096;BME280;17749;51.962;8.560;2023-02-14T09:47:19;101915.28;;;5.97;100.00
31096;BME280;17749;51.962;8.560;2023-02-14T09:49:49;101904.81;;;6.12;100.00
31096;BME280;17749;51.962;8.560;2023-02-14T09:52:18;101910.22;;;6.28;100.00
31096;BME280;17749;51.962;8.560;2023-02-14T09:54:52;101906.75;;;6.35;100.00
31096;BME280;17749;51.962;8.560;2023-02-14T09:57:38;101906.81;;;6.46;100.00
31096;BME280;17749;51.962;8.560;2023-02-14T10:00:19;101906.84;;;6.53;100.00
31096;BME280;17749;51.962;8.560;2023-02-14T10:03:04;101907.78;;;6.63;100.00
31096;BME280;17749;51.962;8.560;2023-02-14T10:05:57;101905.19;;;6.71;100.00
31096;BME280;17749;51.962;8.560;2023-02-14T10:11:20;101900.84;;;6.96;100.00
31096;BME280;17749;51.962;8.560;2023-02-14T10:13:51;101901.78;;;7.12;100.00
31096;BME280;17749;51.962;8.560;2023-02-14T10:16:24;101895.63;;;7.22;100.00
31096;BME280;17749;51.962;8.560;2023-02-14T10:19:03;101902.72;;;7.38;100.00
31096;BME280;17749;51.962;8.560;2023-02-14T10:21:40;101908.03;;;7.54;100.00
31096;BME280;17749;51.962;8.560;2023-02-14T10:24:21;101897.47;;;7.63;100.00
31096;BME280;17749;51.962;8.560;2023-02-14T10:26:52;101900.13;;;7.81;100.00
31096;BME280;17749;51.962;8.560;2023-02-14T10:29:23;101901.88;;;7.92;100.00
31096;BME280;17749;51.962;8.560;2023-02-14T10:31:58;101893.03;;;8.05;100.00
31096;BME280;17749;51.962;8.560;2023-02-14T10:34:47;101883.28;;;8.21;100.00
31096;BME280;17749;51.962;8.560;2023-02-14T10:37:21;101880.56;;;8.38;100.00
31096;BME280;17749;51.962;8.560;2023-02-14T10:53:49;101874.25;;;8.77;100.00
31096;BME280;17749;51.962;8.560;2023-02-14T10:56:54;101867.19;;;8.81;100.00
31096;BME280;17749;51.962;8.560;2023-02-14T10:59:28;101861.84;;;8.79;100.00
31096;BME280;17749;51.962;8.560;2023-02-14T11:01:59;101865.41;;;8.76;100.00
31096;BME280;17749;51.962;8.560;2023-02-14T11:04:27;101857.44;;;8.78;100.00
31096;BME280;17749;51.962;8.560;2023-02-14T11:06:57;101860.09;;;8.80;100.00
31096;BME280;17749;51.962;8.560;2023-02-14T11:09:24;101851.22;;;8.77;100.00
31096;BME280;17749;51.962;8.560;2023-02-14T11:11:53;101857.41;;;8.83;100.00
31096;BME280;17749;51.962;8.560;2023-02-14T11:14:30;101853.88;;;8.84;100.00
31096;BME280;17749;51.962;8.560;2023-02-14T11:16:59;101857.44;;;8.81;100.00
31096;BME280;17749;51.962;8.560;2023-02-14T11:19:33;101853.00;;;8.77;100.00
31096;BME280;17749;51.962;8.560;2023-02-14T11:22:03;101844.19;;;8.73;100.00
31096;BME280;17749;51.962;8.560;2023-02-14T11:24:36;101834.47;;;8.66;100.00
31096;BME280;17749;51.962;8.560;2023-02-14T11:27:24;101838.00;;;8.68;100.00
31096;BME280;17749;51.962;8.560;2023-02-14T11:29:51;101839.75;;;8.69;100.00
31096;BME280;17749;51.962;8.560;2023-02-14T11:32:23;101833.56;;;8.70;100.00
31096;BME280;17749;51.962;8.560;2023-02-14T11:34:59;101836.22;;;8.70;100.00
31096;BME280;17749;51.962;8.560;2023-02-14T11:39:58;101833.50;;;8.80;100.00
31096;BME280;17749;51.962;8.560;2023-02-14T11:42:44;101824.59;;;8.90;100.00
31096;BME280;17749;51.962;8.560;2023-02-14T11:45:35;101813.06;;;8.97;100.00
31096;BME280;17749;51.962;8.560;2023-02-14T11:51:01;101805.03;;;9.05;100.00
31096;BME280;17749;51.962;8.560;2023-02-14T11:53:43;101800.63;;;9.02;100.00
31096;BME280;17749;51.962;8.560;2023-02-14T11:56:11;101796.19;;;9.03;100.00
31096;BME280;17749;51.962;8.560;2023-02-14T11:58:59;101800.66;;;8.96;100.00
31096;BME280;17749;51.962;8.560;2023-02-14T12:01:34;101790.03;;;8.93;100.00
31096;BME280;17749;51.962;8.560;2023-02-14T12:04:04;101782.91;;;8.98;100.00
31096;BME280;17749;51.962;8.560;2023-02-14T12:06:34;101780.25;;;9.04;100.00
31096;BME280;17749;51.962;8.560;2023-02-14T12:11:54;101779.28;;;9.13;100.00
31096;BME280;17749;51.962;8.560;2023-02-14T12:14:26;101768.66;;;9.11;100.00
31096;BME280;17749;51.962;8.560;2023-02-14T12:17:17;101768.69;;;9.10;100.00
31096;BME280;17749;51.962;8.560;2023-02-14T12:20:14;101762.50;;;9.09;100.00
31096;BME280;17749;51.962;8.560;2023-02-14T12:22:55;101753.59;;;9.10;100.00
31096;BME280;17749;51.962;8.560;2023-02-14T12:25:36;101759.78;;;9.14;100.00
31096;BME280;17749;51.962;8.560;2023-02-14T12:28:12;101759.81;;;9.09;100.00
31096;BME280;17749;51.962;8.560;2023-02-14T12:30:40;101753.63;;;9.06;100.00
31096;BME280;17749;51.962;8.560;2023-02-14T12:33:20;101758.00;;;9.17;100.00
31096;BME280;17749;51.962;8.560;2023-02-14T12:36:13;101748.19;;;9.19;100.00
31096;BME280;17749;51.962;8.560;2023-02-14T12:38:53;101744.63;;;9.22;100.00
31096;BME280;17749;51.962;8.560;2023-02-14T12:41:45;101739.25;;;9.31;100.00
31096;BME280;17749;51.962;8.560;2023-02-14T12:47:06;101729.44;;;9.41;100.00
31096;BME280;17749;51.962;8.560;2023-02-14T12:58:17;101708.91;;;9.52;100.00
31096;BME280;17749;51.962;8.560;2023-02-14T13:00:53;101695.63;;;9.52;100.00
31096;BME280;17749;51.962;8.560;2023-02-14T13:11:35;101686.66;;;9.62;100.00
31096;BME280;17749;51.962;8.560;2023-02-14T13:23:05;101668.06;;;9.58;100.00
31096;BME280;17749;51.962;8.560;2023-02-14T13:25:48;101669.91;;;9.54;100.00
31096;BME280;17749;51.962;8.560;2023-02-14T13:28:18;101661.00;;;9.57;100.00
31096;BME280;17749;51.962;8.560;2023-02-14T13:30:45;101657.44;;;9.59;100.00
31096;BME280;17749;51.962;8.560;2023-02-14T13:33:38;101665.25;;;9.72;100.00
31096;BME280;17749;51.962;8.560;2023-02-14T13:36:10;101649.28;;;9.75;100.00
31096;BME280;17749;51.962;8.560;2023-02-14T13:38:50;101661.66;;;9.76;100.00
31096;BME280;17749;51.962;8.560;2023-02-14T13:41:19;101642.06;;;9.83;100.00
31096;BME280;17749;51.962;8.560;2023-02-14T13:47:07;101640.25;;;9.88;100.00
31096;BME280;17749;51.962;8.560;2023-02-14T13:49:27;101642.84;;;9.91;100.00
31096;BME280;17749;51.962;8.560;2023-02-14T13:52:01;101636.66;;;9.87;100.00
31096;BME280;17749;51.962;8.560;2023-02-14T13:54:44;101637.53;;;9.90;100.00
31096;BME280;17749;51.962;8.560;2023-02-14T13:57:28;101641.94;;;9.92;100.00
31096;BME280;17749;51.962;8.560;2023-02-14T14:10:50;101624.38;;;9.79;100.00
31096;BME280;17749;51.962;8.560;2023-02-14T14:21:36;101605.19;;;10.19;100.00
31096;BME280;17749;51.962;8.560;2023-02-14T14:24:20;101613.19;;;10.19;100.00
31096;BME280;17749;51.962;8.560;2023-02-14T14:29:55;101615.94;;;10.13;100.00
31096;BME280;17749;51.962;8.560;2023-02-14T14:32:29;101618.66;;;10.09;100.00
31096;BME280;17749;51.962;8.560;2023-02-14T14:35:01;101621.28;;;10.11;100.00
31096;BME280;17749;51.962;8.560;2023-02-14T14:37:32;101611.47;;;10.15;100.00
31096;BME280;17749;51.962;8.560;2023-02-14T14:40:05;101604.38;;;10.17;100.00
31096;BME280;17749;51.962;8.560;2023-02-14T14:42:36;101610.69;;;10.08;100.00
31096;BME280;17749;51.962;8.560;2023-02-14T14:45:20;101604.47;;;10.09;100.00
31096;BME280;17749;51.962;8.560;2023-02-14T14:47:51;101600.06;;;10.06;100.00
31096;BME280;17749;51.962;8.560;2023-02-14T14:52:59;101583.88;;;10.20;100.00
31096;BME280;17749;51.962;8.560;2023-02-14T14:55:30;101584.72;;;10.24;100.00
31096;BME280;17749;51.962;8.560;2023-02-14T14:57:59;101582.03;;;10.24;100.00
31096;BME280;17749;51.962;8.560;2023-02-14T15:00:32;101580.28;;;10.27;100.00
31096;BME280;17749;51.962;8.560;2023-02-14T15:03:11;101583.81;;;10.25;100.00
31096;BME280;17749;51.962;8.560;2023-02-14T15:05:43;101574.03;;;10.25;100.00
31096;BME280;17749;51.962;8.560;2023-02-14T15:18:48;101558.13;;;10.22;100.00
31096;BME280;17749;51.962;8.560;2023-02-14T15:21:16;101559.88;;;10.23;100.00
31096;BME280;17749;51.962;8.560;2023-02-14T15:23:44;101563.41;;;10.25;100.00
31096;BME280;17749;51.962;8.560;2023-02-14T15:26:28;101565.16;;;10.28;100.00
31096;BME280;17749;51.962;8.560;2023-02-14T15:29:01;101563.34;;;10.27;100.00
31096;BME280;17749;51.962;8.560;2023-02-14T15:31:31;101564.34;;;10.21;100.00
31096;BME280;17749;51.962;8.560;2023-02-14T15:34:00;101565.25;;;10.19;100.00
31096;BME280;17749;51.962;8.560;2023-02-14T15:36:29;101568.84;;;10.18;100.00
31096;BME280;17749;51.962;8.560;2023-02-14T15:38:57;101565.38;;;10.13;100.00
31096;BME280;17749;51.962;8.560;2023-02-14T15:41:25;101565.25;;;10.22;100.00
31096;BME280;17749;51.962;8.560;2023-02-14T15:43:54;101565.00;;;10.37;100.00
31096;BME280;17749;51.962;8.560;2023-02-14T15:46:30;101566.66;;;10.44;100.00
31096;BME280;17749;51.962;8.560;2023-02-14T15:48:59;101563.16;;;10.42;100.00
31096;BME280;17749;51.962;8.560;2023-02-14T15:51:32;101559.53;;;10.46;100.00
31096;BME280;17749;51.962;8.560;2023-02-14T15:54:18;101559.53;;;10.46;100.00
31096;BME280;17749;51.962;8.560;2023-02-14T15:56:48;101564.19;;;10.35;100.00
31096;BME280;17749;51.962;8.560;2023-02-14T15:59:19;101574.72;;;10.43;100.00
31096;BME280;17749;51.962;8.560;2023-02-14T16:01:52;101562.34;;;10.39;100.00
31096;BME280;17749;51.962;8.560;2023-02-14T16:04:27;101562.44;;;10.33;100.00
31096;BME280;17749;51.962;8.560;2023-02-14T16:07:26;101570.38;;;10.34;100.00
31096;BME280;17749;51.962;8.560;2023-02-14T16:10:35;101559.88;;;10.23;100.00
31096;BME280;17749;51.962;8.560;2023-02-14T16:13:49;101564.31;;;10.24;100.00
31096;BME280;17749;51.962;8.560;2023-02-14T16:16:04;101561.72;;;10.20;100.00
31096;BME280;17749;51.962;8.560;2023-02-14T16:21:31;101570.84;;;10.03;100.00
31096;BME280;17749;51.962;8.560;2023-02-14T16:26:40;101575.47;;;9.87;100.00
31096;BME280;17749;51.962;8.560;2023-02-14T16:29:10;101570.34;;;9.75;100.00
31096;BME280;17749;51.962;8.560;2023-02-14T16:31:50;101581.94;;;9.66;100.00
31096;BME280;17749;51.962;8.560;2023-02-14T16:34:38;101573.28;;;9.52;100.00
31096;BME280;17749;51.962;8.560;2023-02-14T16:37:21;101572.50;;;9.42;100.00
31096;BME280;17749;51.962;8.560;2023-02-14T16:39:50;101564.66;;;9.32;100.00
31096;BME280;17749;51.962;8.560;2023-02-14T16:42:22;101570.94;;;9.26;100.00
31096;BME280;17749;51.962;8.560;2023-02-14T16:44:58;101573.66;;;9.18;100.00
31096;BME280;17749;51.962;8.560;2023-02-14T16:47:26;101574.63;;;9.11;100.00
31096;BME280;17749;51.962;8.560;2023-02-14T16:49:53;101574.78;;;8.97;100.00
31096;BME280;17749;51.962;8.560;2023-02-14T16:52:27;101579.28;;;8.91;100.00
31096;BME280;17749;51.962;8.560;2023-02-14T16:54:54;101574.97;;;8.81;100.00
31096;BME280;17749;51.962;8.560;2023-02-14T16:57:40;101566.22;;;8.66;100.00
31096;BME280;17749;51.962;8.560;2023-02-14T17:00:11;101565.44;;;8.55;100.00
31096;BME280;17749;51.962;8.560;2023-02-14T17:02:42;101574.34;;;8.49;100.00
31096;BME280;17749;51.962;8.560;2023-02-14T17:05:10;101567.31;;;8.38;100.00
31096;BME280;17749;51.962;8.560;2023-02-14T17:07:39;101567.41;;;8.25;100.00
31096;BME280;17749;51.962;8.560;2023-02-14T17:10:13;101571.88;;;8.19;100.00
31096;BME280;17749;51.962;8.560;2023-02-14T17:12:44;101565.81;;;8.00;100.00
31096;BME280;17749;51.962;8.560;2023-02-14T17:15:15;101576.47;;;7.90;100.00
31096;BME280;17749;51.962;8.560;2023-02-14T17:17:44;101577.41;;;7.82;100.00
31096;BME280;17749;51.962;8.560;2023-02-14T17:20:13;101575.69;;;7.72;100.00
31096;BME280;17749;51.962;8.560;2023-02-14T17:22:40;101581.91;;;7.63;100.00
31096;BME280;17749;51.962;8.560;2023-02-14T17:25:10;101583.72;;;7.58;100.00
31096;BME280;17749;51.962;8.560;2023-02-14T17:27:37;101585.50;;;7.46;100.00
31096;BME280;17749;51.962;8.560;2023-02-14T17:30:13;101586.44;;;7.35;100.00
31096;BME280;17749;51.962;8.560;2023-02-14T17:32:42;101590.88;;;7.25;100.00
31096;BME280;17749;51.962;8.560;2023-02-14T17:35:09;101582.06;;;7.12;100.00
31096;BME280;17749;51.962;8.560;2023-02-14T17:37:37;101593.56;;;7.14;100.00
31096;BME280;17749;51.962;8.560;2023-02-14T17:40:05;101596.22;;;7.07;100.00
31096;BME280;17749;51.962;8.560;2023-02-14T17:42:33;101590.97;;;6.94;100.00
31096;BME280;17749;51.962;8.560;2023-02-14T17:45:03;101600.66;;;6.86;100.00
31096;BME280;17749;51.962;8.560;2023-02-14T17:47:32;101590.06;;;6.72;100.00
31096;BME280;17749;51.962;8.560;2023-02-14T17:49:59;101593.63;;;6.56;100.00
31096;BME280;17749;51.962;8.560;2023-02-14T17:52:29;101587.47;;;6.52;100.00
31096;BME280;17749;51.962;8.560;2023-02-14T17:54:56;101589.22;;;6.50;100.00
31096;BME280;17749;51.962;8.560;2023-02-14T17:57:23;101582.13;;;6.46;100.00
31096;BME280;17749;51.962;8.560;2023-02-14T17:59:50;101578.59;;;6.41;100.00
31096;BME280;17749;51.962;8.560;2023-02-14T18:02:17;101581.25;;;6.36;100.00
31096;BME280;17749;51.962;8.560;2023-02-14T18:04:44;101583.00;;;6.33;100.00
31096;BME280;17749;51.962;8.560;2023-02-14T18:07:10;101583.00;;;6.28;100.00
31096;BME280;17749;51.962;8.560;2023-02-14T18:09:37;101578.59;;;6.23;100.00
31096;BME280;17749;51.962;8.560;2023-02-14T18:12:05;101586.50;;;6.18;100.00
31096;BME280;17749;51.962;8.560;2023-02-14T18:14:32;101575.06;;;6.08;100.00
31096;BME280;17749;51.962;8.560;2023-02-14T18:17:00;101585.63;;;6.05;100.00
31096;BME280;17749;51.962;8.560;2023-02-14T18:19:28;101573.28;;;5.98;100.00
31096;BME280;17749;51.962;8.560;2023-02-14T18:21:56;101573.28;;;5.95;100.00
31096;BME280;17749;51.962;8.560;2023-02-14T18:24:23;101581.16;;;5.90;100.00
31096;BME280;17749;51.962;8.560;2023-02-14T18:26:50;101571.44;;;5.82;100.00
31096;BME280;17749;51.962;8.560;2023-02-14T18:29:18;101566.09;;;5.72;100.00
31096;BME280;17749;51.962;8.560;2023-02-14T18:31:45;101563.47;;;5.66;100.00
31096;BME280;17749;51.962;8.560;2023-02-14T18:34:12;101571.38;;;5.66;100.00
31096;BME280;17749;51.962;8.560;2023-02-14T18:36:40;101563.41;;;5.54;100.00
31096;BME280;17749;51.962;8.560;2023-02-14T18:39:07;101566.03;;;5.51;100.00
31096;BME280;17749;51.962;8.560;2023-02-14T18:41:35;101565.09;;;5.37;100.00
31096;BME280;17749;51.962;8.560;2023-02-14T18:44:02;101571.22;;;5.34;100.00
31096;BME280;17749;51.962;8.560;2023-02-14T18:46:31;101555.38;;;5.30;100.00
31096;BME280;17749;51.962;8.560;2023-02-14T18:49:00;101558.00;;;5.28;100.00
31096;BME280;17749;51.962;8.560;2023-02-14T18:51:32;101556.22;;;5.25;100.00
31096;BME280;17749;51.962;8.560;2023-02-14T18:54:02;101548.28;;;5.19;100.00
31096;BME280;17749;51.962;8.560;2023-02-14T18:56:32;101540.31;;;5.10;100.00
31096;BME280;17749;51.962;8.560;2023-02-14T18:59:03;101542.03;;;5.08;100.00
31096;BME280;17749;51.962;8.560;2023-02-14T19:01:32;101546.47;;;5.06;100.00
31096;BME280;17749;51.962;8.560;2023-02-14T19:04:04;101548.19;;;5.01;100.00
31096;BME280;17749;51.962;8.560;2023-02-14T19:06:32;101542.84;;;4.95;100.00
31096;BME280;17749;51.962;8.560;2023-02-14T19:09:00;101545.50;;;4.93;100.00
31096;BME280;17749;51.962;8.560;2023-02-14T19:11:29;101541.94;;;4.87;100.00
31096;BME280;17749;51.962;8.560;2023-02-14T19:14:01;101539.28;;;4.83;100.00
31096;BME280;17749;51.962;8.560;2023-02-14T19:16:31;101537.44;;;4.73;100.00
31096;BME280;17749;51.962;8.560;2023-02-14T19:18:59;101540.97;;;4.72;100.00
31096;BME280;17749;51.962;8.560;2023-02-14T19:21:30;101542.69;;;4.67;100.00
31096;BME280;17749;51.962;8.560;2023-02-14T19:23:58;101532.97;;;4.63;100.00
31096;BME280;17749;51.962;8.560;2023-02-14T19:26:30;101533.84;;;4.59;100.00
31096;BME280;17749;51.962;8.560;2023-02-14T19:29:08;101537.28;;;4.52;100.00
31096;BME280;17749;51.962;8.560;2023-02-14T19:31:37;101525.84;;;4.50;100.00
31096;BME280;17749;51.962;8.560;2023-02-14T19:34:06;101528.47;;;4.50;100.00
31096;BME280;17749;51.962;8.560;2023-02-14T19:36:34;101522.28;;;4.43;100.00
31096;BME280;17749;51.962;8.560;2023-02-14T19:39:04;101530.19;;;4.42;100.00
31096;BME280;17749;51.962;8.560;2023-02-14T19:41:32;101532.78;;;4.40;100.00
31096;BME280;17749;51.962;8.560;2023-02-14T19:44:02;101520.41;;;4.31;100.00
31096;BME280;17749;51.962;8.560;2023-02-14T19:46:32;101523.97;;;4.33;100.00
31096;BME280;17749;51.962;8.560;2023-02-14T19:49:00;101524.84;;;4.32;100.00
31096;BME280;17749;51.962;8.560;2023-02-14T19:51:33;101521.31;;;4.30;100.00
31096;BME280;17749;51.962;8.560;2023-02-14T19:54:04;101511.53;;;4.22;100.00
31096;BME280;17749;51.962;8.560;2023-02-14T19:56:33;101515.94;;;4.21;100.00
31096;BME280;17749;51.962;8.560;2023-02-14T19:59:02;101513.28;;;4.18;100.00
31096;BME280;17749;51.962;8.560;2023-02-14T20:01:39;101517.66;;;4.16;100.00
31096;BME280;17749;51.962;8.560;2023-02-14T20:04:10;101513.25;;;4.12;100.00
31096;BME280;17749;51.962;8.560;2023-02-14T20:06:39;101514.06;;;4.08;100.00
31096;BME280;17749;51.962;8.560;2023-02-14T20:09:07;101515.78;;;4.03;100.00
31096;BME280;17749;51.962;8.560;2023-02-14T20:11:46;101517.47;;;3.94;100.00
31096;BME280;17749;51.962;8.560;2023-02-14T20:14:23;101512.13;;;3.90;100.00
31096;BME280;17749;51.962;8.560;2023-02-14T20:16:51;101512.13;;;3.88;100.00
31096;BME280;17749;51.962;8.560;2023-02-14T20:19:20;101512.97;;;3.84;100.00
31096;BME280;17749;51.962;8.560;2023-02-14T20:21:49;101504.16;;;3.81;100.00
31096;BME280;17749;51.962;8.560;2023-02-14T20:24:19;101499.72;;;3.75;100.00
31096;BME280;17749;51.962;8.560;2023-02-14T20:26:46;101510.25;;;3.75;100.00
31096;BME280;17749;51.962;8.560;2023-02-14T20:29:14;101511.06;;;3.69;100.00
31096;BME280;17749;51.962;8.560;2023-02-14T20:31:47;101510.13;;;3.64;100.00
31096;BME280;17749;51.962;8.560;2023-02-14T20:34:15;101508.31;;;3.60;100.00
31096;BME280;17749;51.962;8.560;2023-02-14T20:36:43;101513.53;;;3.56;100.00
31096;BME280;17749;51.962;8.560;2023-02-14T20:39:11;101510.84;;;3.51;100.00
31096;BME280;17749;51.962;8.560;2023-02-14T20:41:38;101507.31;;;3.47;100.00
31096;BME280;17749;51.962;8.560;2023-02-14T20:44:11;101505.50;;;3.45;100.00
31096;BME280;17749;51.962;8.560;2023-02-14T20:46:41;101503.72;;;3.41;100.00
31096;BME280;17749;51.962;8.560;2023-02-14T20:49:08;101493.94;;;3.32;100.00
31096;BME280;17749;51.962;8.560;2023-02-14T20:51:38;101485.16;;;3.30;100.00